Time;durP1;ratioP1;P1;durP2;ratioP2;P2;SDS_P1;SDS_P2;PMS_P1;PMS_P2;Temp;Humidity;BMP_temperature;BMP_pressure;BME280_temperature;BME280_humidity;BME280_pressure;Samples;Min_cycle;Max_cycle;Signal;HPM_P1;HPM_P2
2023/08/24 00:01:56;;;;;;;;;8.75;8.00;;;;;28.28;53.35;101002.91;5049881;28;45601;-68
2023/08/24 00:04:22;;;;;;;;;9.50;9.00;;;;;28.28;53.93;100999.25;5059125;28;51789;-68
2023/08/24 00:06:48;;;;;;;;;8.00;8.00;;;;;28.30;53.70;101010.97;5046892;28;46074;-68
2023/08/24 00:09:15;;;;;;;;;9.50;8.00;;;;;28.20;53.89;100991.84;5058892;28;45360;-68
2023/08/24 00:11:40;;;;;;;;;8.50;8.50;;;;;28.22;54.03;100988.94;5060440;28;45349;-68
2023/08/24 00:14:06;;;;;;;;;8.25;8.25;;;;;28.28;53.77;100991.91;5060339;28;45543;-68
2023/08/24 00:16:32;;;;;;;;;9.00;8.75;;;;;28.25;53.25;100986.72;5047787;28;45808;-68
2023/08/24 00:18:57;;;;;;;;;9.75;8.25;;;;;28.22;53.39;100975.22;5058823;28;45435;-68
2023/08/24 00:21:23;;;;;;;;;10.00;7.75;;;;;28.20;53.44;100969.00;5058783;28;45541;-68
2023/08/24 00:23:49;;;;;;;;;9.75;8.25;;;;;28.23;53.36;100975.06;5059746;28;45517;-68
2023/08/24 00:26:16;;;;;;;;;8.00;8.00;;;;;28.23;53.28;100988.78;5050116;28;46292;-68
2023/08/24 00:28:42;;;;;;;;;9.00;8.00;;;;;28.19;54.08;100979.13;5059355;28;46015;-68
2023/08/24 00:31:08;;;;;;;;;8.25;8.25;;;;;28.21;53.75;100974.34;5060384;28;45504;-68
2023/08/24 00:33:33;;;;;;;;;7.25;7.25;;;;;28.21;53.01;100982.56;5060099;28;45531;-68
2023/08/24 00:36:02;;;;;;;;;10.00;10.00;;;;;28.22;53.83;100980.72;5051324;28;46154;-68
2023/08/24 00:38:28;;;;;;;;;7.50;7.00;;;;;28.16;53.85;100984.94;5067644;28;45459;-68
2023/08/24 00:40:54;;;;;;;;;11.75;9.00;;;;;28.16;53.29;100993.16;5059844;28;45395;-68
2023/08/24 00:43:23;;;;;;;;;9.75;9.25;;;;;28.14;53.71;100991.63;5054500;28;45423;-68
2023/08/24 00:45:55;;;;;;;;;8.25;8.00;;;;;28.10;54.15;100999.31;5055199;28;46986;-68
2023/08/24 00:48:25;;;;;;;;;7.75;7.75;;;;;28.05;54.35;100998.88;5059068;28;45378;-68
2023/08/24 00:51:01;;;;;;;;;7.50;7.50;;;;;28.06;54.33;100995.13;5059859;28;45337;-68
2023/08/24 00:53:28;;;;;;;;;8.50;8.25;;;;;28.05;53.79;101002.53;5058927;28;45470;-68
2023/08/24 00:55:53;;;;;;;;;6.25;6.25;;;;;28.03;54.75;100996.34;5055238;28;45529;-68
2023/08/24 00:58:20;;;;;;;;;8.00;6.50;;;;;28.01;54.71;100989.25;5058844;28;45386;-68
2023/08/24 01:00:45;;;;;;;;;7.75;7.75;;;;;28.01;54.09;100998.34;5060568;28;45394;-68
2023/08/24 01:03:11;;;;;;;;;5.50;5.50;;;;;28.01;54.03;100990.13;5048428;28;45362;-68
2023/08/24 01:05:36;;;;;;;;;6.50;6.50;;;;;27.96;54.38;100984.25;5057673;28;61483;-68
2023/08/24 01:08:01;;;;;;;;;7.25;7.00;;;;;28.01;54.67;100997.50;5057414;28;45460;-68
2023/08/24 01:10:46;;;;;;;;;9.50;9.00;;;;;27.98;54.99;101001.41;5058617;28;45445;-68
2023/08/24 01:13:21;;;;;;;;;8.75;8.75;;;;;27.97;54.56;101004.34;5059528;28;45412;-68
2023/08/24 01:15:55;;;;;;;;;9.00;9.00;;;;;27.95;54.55;100995.38;5054205;28;46995;-68
2023/08/24 01:18:23;;;;;;;;;11.25;10.00;;;;;27.93;55.02;100994.66;5052575;28;45408;-68
2023/08/24 01:20:49;;;;;;;;;7.50;7.50;;;;;27.93;54.59;100991.94;5059617;28;45497;-68
2023/08/24 01:23:27;;;;;;;;;8.75;7.75;;;;;27.92;54.58;100985.56;5055593;28;45395;-68
2023/08/24 01:26:09;;;;;;;;;8.25;8.25;;;;;27.86;54.96;100980.69;5059219;28;47123;-68
2023/08/24 01:28:34;;;;;;;;;9.75;9.75;;;;;27.85;54.55;100977.09;5058314;28;45364;-68
2023/08/24 01:31:00;;;;;;;;;9.25;8.00;;;;;27.85;54.50;100984.44;5059397;28;45885;-68
2023/08/24 01:33:25;;;;;;;;;9.25;8.50;;;;;27.79;54.64;100972.22;5050926;28;45393;-68
2023/08/24 01:35:51;;;;;;;;;11.00;7.50;;;;;27.81;54.73;100975.66;5058088;28;45356;-68
2023/08/24 01:38:16;;;;;;;;;6.75;5.75;;;;;27.77;54.28;100970.69;5058735;28;45285;-68
2023/08/24 01:40:53;;;;;;;;;10.00;8.00;;;;;27.75;54.82;100978.19;5059406;28;46141;-68
2023/08/24 01:43:21;;;;;;;;;11.00;8.00;;;;;27.68;54.82;100967.84;5046494;28;45445;-68
2023/08/24 01:45:48;;;;;;;;;9.25;9.00;;;;;27.70;54.79;100963.06;5059223;28;46419;-68
2023/08/24 01:48:14;;;;;;;;;7.00;7.00;;;;;27.70;55.20;100963.06;5058985;28;45542;-68
2023/08/24 01:50:40;;;;;;;;;9.25;7.50;;;;;27.61;55.47;100943.94;5059045;28;45302;-67
2023/08/24 01:53:05;;;;;;;;;8.00;8.00;;;;;27.68;54.60;100948.66;5047198;28;45333;-68
2023/08/24 01:55:31;;;;;;;;;7.25;7.25;;;;;27.72;54.76;100951.94;5056356;28;46295;-68
2023/08/24 01:57:57;;;;;;;;;6.75;6.75;;;;;27.71;55.27;100948.31;5056409;28;49985;-68
2023/08/24 02:00:23;;;;;;;;;8.75;8.50;;;;;27.69;55.22;100944.03;5056978;28;45700;-68
2023/08/24 02:02:48;;;;;;;;;7.00;7.00;;;;;27.69;54.73;100944.03;5044878;28;45485;-68
2023/08/24 02:05:14;;;;;;;;;10.25;8.75;;;;;27.69;55.20;100942.13;5055808;28;45483;-68
2023/08/24 02:07:40;;;;;;;;;8.50;7.50;;;;;27.67;55.49;100940.59;5069960;28;45466;-68
2023/08/24 02:10:06;;;;;;;;;8.75;6.50;;;;;27.63;54.79;100931.81;5057452;28;45572;-68
2023/08/24 02:12:31;;;;;;;;;7.75;7.25;;;;;27.60;55.66;100934.88;5052910;28;45543;-68
2023/08/24 02:14:56;;;;;;;;;9.75;9.75;;;;;27.60;55.22;100933.97;5050588;28;45366;-68
2023/08/24 02:17:22;;;;;;;;;10.00;10.00;;;;;27.56;54.87;100932.59;5058661;28;45362;-68
2023/08/24 02:19:47;;;;;;;;;6.75;6.75;;;;;27.52;55.09;100929.28;5058778;28;45370;-68
2023/08/24 02:22:13;;;;;;;;;8.00;6.75;;;;;27.51;55.36;100931.16;5055810;28;45349;-68
2023/08/24 02:24:39;;;;;;;;;8.00;8.00;;;;;27.52;55.81;100932.03;5057433;28;45330;-68
2023/08/24 02:27:04;;;;;;;;;6.75;5.25;;;;;27.50;55.41;100928.59;5058349;28;45315;-68
2023/08/24 02:29:30;;;;;;;;;9.00;8.00;;;;;27.45;55.04;100915.34;5058621;28;45317;-68
2023/08/24 02:31:55;;;;;;;;;9.00;8.00;;;;;27.47;55.27;100927.00;5057958;28;45349;-68
2023/08/24 02:34:20;;;;;;;;;7.00;7.00;;;;;27.45;55.51;100923.56;5058345;28;45334;-68
2023/08/24 02:36:46;;;;;;;;;8.00;8.00;;;;;27.38;55.41;100924.34;5058185;28;45322;-68
2023/08/24 02:39:11;;;;;;;;;9.00;8.00;;;;;27.28;55.92;100908.81;5058410;28;45361;-68
2023/08/24 02:41:36;;;;;;;;;6.00;6.00;;;;;27.32;56.08;100918.47;5065811;28;45364;-68
2023/08/24 02:44:02;;;;;;;;;6.00;6.00;;;;;27.32;55.81;100907.50;5052292;28;57004;-68
2023/08/24 02:46:27;;;;;;;;;9.75;9.00;;;;;27.34;56.16;100908.19;5058066;28;45387;-68
2023/08/24 02:48:53;;;;;;;;;8.75;8.00;;;;;27.35;55.94;100904.44;5058685;28;45294;-68
2023/08/24 02:51:22;;;;;;;;;8.00;7.00;;;;;27.35;55.70;100904.44;5057939;28;47993;-68
2023/08/24 02:53:47;;;;;;;;;10.00;8.50;;;;;27.34;55.83;100899.13;5054000;28;46195;-68
2023/08/24 02:56:12;;;;;;;;;5.75;5.75;;;;;27.33;56.03;100892.78;5057657;28;45380;-68
2023/08/24 02:58:38;;;;;;;;;9.50;6.25;;;;;27.33;55.82;100901.00;5058368;28;45303;-68
2023/08/24 03:01:07;;;;;;;;;5.25;5.25;;;;;27.32;56.03;100887.47;5059693;28;45421;-68
2023/08/24 03:03:33;;;;;;;;;7.25;7.25;;;;;27.28;56.02;100889.63;5053614;28;46451;-68
2023/08/24 03:06:02;;;;;;;;;7.00;7.00;;;;;27.28;56.14;100884.16;5060659;28;45546;-68
2023/08/24 03:08:29;;;;;;;;;8.50;8.50;;;;;27.18;56.33;100866.88;5061165;28;45238;-68
2023/08/24 03:10:54;;;;;;;;;9.00;9.00;;;;;27.23;56.14;100874.66;5061524;28;45333;-68
2023/08/24 03:13:19;;;;;;;;;9.00;7.75;;;;;27.10;56.52;100862.19;5050219;28;45545;-68
2023/08/24 03:15:45;;;;;;;;;8.25;6.75;;;;;27.13;56.31;100867.38;5060440;28;45488;-68
2023/08/24 03:18:15;;;;;;;;;8.00;8.00;;;;;27.10;56.58;100866.81;5061603;28;45434;-68
2023/08/24 03:20:41;;;;;;;;;8.50;8.00;;;;;27.00;56.59;100853.19;5048817;28;45655;-68
2023/08/24 03:23:07;;;;;;;;;9.25;8.75;;;;;26.97;56.70;100864.44;5058195;28;46128;-68
2023/08/24 03:25:36;;;;;;;;;11.00;9.00;;;;;26.97;57.04;100864.44;5060434;28;45448;-68
2023/08/24 03:28:02;;;;;;;;;10.25;9.00;;;;;26.97;56.91;100864.44;5061237;28;45333;-68
2023/08/24 03:30:27;;;;;;;;;10.50;10.50;;;;;26.96;56.82;100862.72;5069358;28;45654;-68
2023/08/24 03:32:52;;;;;;;;;8.25;6.75;;;;;26.98;57.26;100868.88;5065322;28;45369;-68
2023/08/24 03:35:18;;;;;;;;;7.25;7.25;;;;;26.96;57.24;100860.84;5059855;28;59162;-68
2023/08/24 03:37:43;;;;;;;;;8.50;7.50;;;;;26.95;57.65;100863.75;5060701;28;45314;-68
2023/08/24 03:40:09;;;;;;;;;10.50;9.00;;;;;26.89;57.68;100865.19;5060945;28;48719;-68
2023/08/24 03:42:34;;;;;;;;;7.75;7.75;;;;;26.88;57.86;100855.28;5060018;28;45462;-68
2023/08/24 03:45:00;;;;;;;;;9.25;8.75;;;;;26.86;57.84;100856.44;5050649;28;45437;-68
2023/08/24 03:47:25;;;;;;;;;6.75;6.25;;;;;26.76;57.76;100845.53;5055937;28;45535;-68
2023/08/24 03:49:50;;;;;;;;;9.25;8.25;;;;;26.82;58.13;100864.09;5060927;28;45609;-67
2023/08/24 03:52:16;;;;;;;;;9.00;9.00;;;;;26.78;57.19;100863.53;5053989;28;45552;-68
2023/08/24 03:54:41;;;;;;;;;7.25;7.25;;;;;26.77;58.07;100856.34;5059759;28;45368;-68
2023/08/24 03:57:06;;;;;;;;;8.75;8.75;;;;;26.75;58.36;100863.84;5053150;28;45567;-68
2023/08/24 03:59:32;;;;;;;;;9.50;8.50;;;;;26.73;58.54;100854.03;5059125;28;58916;-67
2023/08/24 04:02:01;;;;;;;;;10.00;8.00;;;;;26.74;58.38;100861.25;5049254;28;45278;-68
2023/08/24 04:04:27;;;;;;;;;7.25;7.25;;;;;26.64;58.53;100844.88;5058711;28;45431;-68
2023/08/24 04:06:52;;;;;;;;;8.25;8.25;;;;;26.68;58.62;100854.53;5060438;28;45877;-68
2023/08/24 04:09:17;;;;;;;;;8.25;8.25;;;;;26.61;58.75;100845.16;5073647;28;45405;-68
2023/08/24 04:11:43;;;;;;;;;7.75;7.75;;;;;26.64;58.80;100861.31;5060452;28;46982;-68
2023/08/24 04:14:08;;;;;;;;;8.00;8.00;;;;;26.64;58.95;100854.97;5058164;28;60646;-68
2023/08/24 04:16:33;;;;;;;;;8.75;8.00;;;;;26.59;58.87;100850.75;5059851;28;45465;-68
2023/08/24 04:18:59;;;;;;;;;7.50;7.50;;;;;26.60;58.82;100838.81;5059275;28;49483;-68
2023/08/24 04:21:24;;;;;;;;;12.00;11.00;;;;;26.60;58.73;100837.97;5059281;28;46093;-68
2023/08/24 04:23:49;;;;;;;;;8.25;7.00;;;;;26.61;58.87;100845.16;5058671;28;55688;-68
2023/08/24 04:26:14;;;;;;;;;9.25;9.25;;;;;26.61;58.75;100837.81;5058853;28;54136;-68
2023/08/24 04:28:40;;;;;;;;;8.25;8.25;;;;;26.57;58.59;100833.63;5075663;28;45400;-68
2023/08/24 04:31:05;;;;;;;;;11.00;10.00;;;;;26.56;58.57;100834.66;5059822;28;48017;-68
2023/08/24 04:33:31;;;;;;;;;9.50;9.50;;;;;26.52;58.93;100821.44;5050767;28;45382;-68
2023/08/24 04:35:56;;;;;;;;;9.25;7.25;;;;;26.55;58.81;100830.19;5054149;28;46367;-68
2023/08/24 04:38:21;;;;;;;;;9.25;8.25;;;;;26.58;58.58;100824.44;5059837;28;45363;-68
2023/08/24 04:40:50;;;;;;;;;7.25;7.00;;;;;26.58;58.47;100829.91;5068458;28;45329;-68
2023/08/24 04:43:16;;;;;;;;;10.00;9.00;;;;;26.54;58.38;100827.59;5046728;28;45544;-68
2023/08/24 04:45:41;;;;;;;;;9.25;8.25;;;;;26.52;58.49;100824.16;5059078;28;45733;-68
2023/08/24 04:48:06;;;;;;;;;9.75;9.75;;;;;26.47;58.11;100821.03;5050929;28;45318;-68
2023/08/24 04:50:32;;;;;;;;;9.75;8.75;;;;;26.46;58.50;100822.88;5059287;28;46268;-68
2023/08/24 04:52:57;;;;;;;;;9.00;9.00;;;;;26.44;58.82;100816.69;5053474;28;45454;-68
2023/08/24 04:55:23;;;;;;;;;9.00;9.00;;;;;26.37;58.28;100810.13;5051701;28;54677;-68
2023/08/24 04:57:48;;;;;;;;;9.75;8.00;;;;;26.39;58.33;100808.94;5059670;28;45508;-68
2023/08/24 05:00:16;;;;;;;;;9.00;9.00;;;;;26.37;58.21;100810.97;5059628;28;45432;-68
2023/08/24 05:02:44;;;;;;;;;10.75;10.75;;;;;26.37;58.56;100812.84;5046634;28;45393;-68
2023/08/24 05:05:16;;;;;;;;;9.75;9.25;;;;;26.36;58.54;100816.59;5058901;28;45348;-68
2023/08/24 05:07:42;;;;;;;;;13.50;12.50;;;;;26.32;57.95;100817.91;5058381;28;45362;-68
2023/08/24 05:10:07;;;;;;;;;11.50;10.50;;;;;26.30;58.37;100814.47;5059421;28;46136;-68
2023/08/24 05:12:35;;;;;;;;;10.00;9.00;;;;;26.27;58.93;100815.63;5049488;28;45247;-68
2023/08/24 05:15:01;;;;;;;;;9.00;9.00;;;;;26.21;58.50;100800.69;5058587;28;45423;-68
2023/08/24 05:17:27;;;;;;;;;9.00;7.75;;;;;26.29;58.68;100816.34;5058734;28;45482;-67
2023/08/24 05:19:54;;;;;;;;;10.50;9.50;;;;;26.30;58.61;100817.22;5072966;28;45368;-67
2023/08/24 05:22:19;;;;;;;;;10.50;9.25;;;;;26.29;58.68;100816.34;5056824;27;45495;-68
2023/08/24 05:24:44;;;;;;;;;9.00;9.00;;;;;26.27;58.05;100822.97;5058443;28;45443;-68
2023/08/24 05:27:10;;;;;;;;;11.00;8.50;;;;;26.21;58.43;100822.56;5059345;28;49206;-68
2023/08/24 05:29:35;;;;;;;;;10.50;10.00;;;;;26.17;58.34;100817.53;5058676;28;57363;-68
2023/08/24 05:32:00;;;;;;;;;10.00;8.50;;;;;26.19;58.78;100834.66;5058427;28;45395;-68
2023/08/24 05:34:26;;;;;;;;;9.75;9.00;;;;;26.15;58.24;100828.63;5058784;28;45425;-68
2023/08/24 05:36:51;;;;;;;;;9.50;8.50;;;;;26.18;58.78;100832.97;5058589;28;57641;-68
2023/08/24 05:39:16;;;;;;;;;8.50;8.50;;;;;26.15;58.42;100817.69;5058617;28;54229;-67
2023/08/24 05:41:42;;;;;;;;;10.50;9.75;;;;;26.17;58.74;100831.22;5057496;28;45574;-68
2023/08/24 05:44:07;;;;;;;;;8.25;5.00;;;;;26.17;58.60;100826.59;5059120;28;45821;-68
2023/08/24 05:46:32;;;;;;;;;7.75;7.75;;;;;26.17;58.67;100815.66;5057906;28;45255;-68
2023/08/24 05:48:59;;;;;;;;;9.75;8.25;;;;;26.14;58.79;100801.44;5058284;28;46149;-68
2023/08/24 05:51:25;;;;;;;;;10.00;8.25;;;;;26.12;58.57;100798.84;5056266;28;45270;-68
2023/08/24 05:53:55;;;;;;;;;5.75;5.75;;;;;26.14;59.07;100802.28;5057007;28;45495;-68
2023/08/24 05:56:23;;;;;;;;;8.75;8.75;;;;;26.09;59.11;100790.94;5057350;28;45354;-67
2023/08/24 05:58:48;;;;;;;;;11.50;11.50;;;;;26.06;58.85;100774.81;5058894;28;45458;-74
2023/08/24 06:01:14;;;;;;;;;10.00;9.00;;;;;26.10;59.05;100784.47;5054326;28;45627;-73
2023/08/24 06:03:39;;;;;;;;;10.75;10.75;;;;;26.09;58.77;100788.19;5043329;28;45379;-73
2023/08/24 06:06:04;;;;;;;;;12.00;11.00;;;;;26.06;59.13;100774.81;5056190;28;45609;-73
2023/08/24 06:08:30;;;;;;;;;10.25;9.75;;;;;26.03;58.95;100777.88;5061253;28;45464;-73
2023/08/24 06:10:57;;;;;;;;;10.50;9.00;;;;;26.07;59.14;100791.06;5074001;28;45779;-73
2023/08/24 06:13:22;;;;;;;;;6.75;6.25;;;;;26.07;59.08;100787.50;5061598;28;45698;-73
2023/08/24 06:15:47;;;;;;;;;13.25;11.50;;;;;26.03;59.18;100794.28;5057478;28;45602;-73
2023/08/24 06:18:13;;;;;;;;;11.00;11.00;;;;;26.03;59.38;100792.41;5057610;28;53120;-74
2023/08/24 06:20:39;;;;;;;;;10.50;10.50;;;;;25.98;59.39;100783.78;5052788;28;45410;-73
2023/08/24 06:23:05;;;;;;;;;10.75;9.50;;;;;26.03;59.17;100794.28;5053781;28;45515;-74
2023/08/24 06:25:31;;;;;;;;;10.50;9.00;;;;;26.04;58.73;100790.50;5058367;28;45519;-75
2023/08/24 06:27:58;;;;;;;;;13.00;10.50;;;;;26.11;59.27;100807.19;5074219;27;47574;-74
2023/08/24 06:30:24;;;;;;;;;11.25;11.00;;;;;26.09;58.93;100809.22;5058295;28;45316;-75
2023/08/24 06:32:49;;;;;;;;;12.00;12.00;;;;;26.09;59.10;100807.34;5056361;28;45430;-76
2023/08/24 06:35:14;;;;;;;;;12.00;12.00;;;;;26.08;59.11;100794.69;5057897;28;45542;-75
2023/08/24 06:37:40;;;;;;;;;8.00;6.75;;;;;26.09;59.32;100795.53;5061397;28;45515;-74
2023/08/24 06:40:06;;;;;;;;;12.75;9.50;;;;;26.00;58.39;100787.22;5060259;28;45513;-75
2023/08/24 06:42:31;;;;;;;;;11.25;11.00;;;;;26.11;58.55;100802.59;5061107;28;45303;-74
2023/08/24 06:44:56;;;;;;;;;12.75;11.00;;;;;26.08;58.86;100789.22;5060664;28;45248;-74
2023/08/24 06:47:22;;;;;;;;;14.25;13.00;;;;;26.10;59.10;100784.47;5060378;28;46163;-73
2023/08/24 06:49:47;;;;;;;;;10.25;9.75;;;;;26.13;58.43;100789.63;5060108;28;45617;-74
2023/08/24 06:52:13;;;;;;;;;10.75;9.75;;;;;26.12;58.76;100790.63;5057211;28;45476;-74
2023/08/24 06:54:39;;;;;;;;;11.00;11.00;;;;;26.06;59.00;100770.22;5059758;28;46492;-73
2023/08/24 06:57:04;;;;;;;;;10.00;10.00;;;;;26.14;58.81;100785.00;5058990;28;47184;-73
2023/08/24 06:59:30;;;;;;;;;12.00;11.75;;;;;26.07;58.66;100771.06;5059055;28;45390;-74
2023/08/24 07:01:55;;;;;;;;;10.00;9.75;;;;;26.16;58.37;100789.34;5055340;28;45471;-75
2023/08/24 07:04:20;;;;;;;;;12.00;11.25;;;;;26.15;58.69;100784.00;5054118;28;46042;-73
2023/08/24 07:06:46;;;;;;;;;6.25;6.25;;;;;26.14;59.08;100783.13;5058033;28;48260;-74
2023/08/24 07:09:11;;;;;;;;;14.75;12.50;;;;;26.21;59.94;100800.69;5061717;28;45544;-73
2023/08/24 07:11:37;;;;;;;;;11.25;11.00;;;;;26.19;60.49;100794.47;5056995;28;45425;-74
2023/08/24 07:14:02;;;;;;;;;11.50;11.00;;;;;26.12;60.34;100784.31;5059503;28;45514;-73
2023/08/24 07:16:27;;;;;;;;;12.00;12.00;;;;;26.13;60.68;100777.81;5059110;28;46277;-73
2023/08/24 07:18:53;;;;;;;;;16.75;16.75;;;;;26.24;60.95;100789.44;5052026;28;45724;-73
2023/08/24 07:21:18;;;;;;;;;12.00;12.00;;;;;26.28;60.70;100794.59;5056564;28;45548;-73
2023/08/24 07:23:44;;;;;;;;;10.75;9.25;;;;;26.21;60.59;100778.81;5056632;28;45413;-73
2023/08/24 07:26:10;;;;;;;;;10.00;10.00;;;;;26.31;60.72;100778.75;5064597;28;45433;-73
2023/08/24 07:28:35;;;;;;;;;7.50;7.50;;;;;26.36;60.14;100786.50;5055718;27;46097;-73
2023/08/24 07:31:13;;;;;;;;;9.25;9.25;;;;;26.34;60.17;100772.97;5059607;28;45334;-73
2023/08/24 07:33:43;;;;;;;;;10.00;9.25;;;;;26.39;59.87;100764.31;5052048;28;45686;-74
2023/08/24 07:36:09;;;;;;;;;10.00;10.00;;;;;26.42;59.68;100755.78;5064520;28;48282;-67
2023/08/24 07:38:34;;;;;;;;;11.25;10.00;;;;;26.39;59.36;100759.69;5058600;28;45352;-66
2023/08/24 07:40:59;;;;;;;;;10.25;10.25;;;;;26.37;59.09;100738.97;5058649;28;45399;-67
2023/08/24 07:43:25;;;;;;;;;8.75;8.75;;;;;26.43;59.54;100743.84;5055945;28;45582;-67
2023/08/24 07:45:51;;;;;;;;;10.25;9.50;;;;;26.40;59.31;100734.06;5057081;28;46168;-67
2023/08/24 07:48:17;;;;;;;;;10.50;10.00;;;;;26.49;59.36;100748.69;5055124;28;45353;-67
2023/08/24 07:50:42;;;;;;;;;12.00;11.00;;;;;26.47;59.70;100742.50;5055109;28;48037;-67
2023/08/24 07:53:07;;;;;;;;;10.00;10.00;;;;;26.48;59.78;100732.41;5056966;28;45717;-67
2023/08/24 07:55:33;;;;;;;;;10.00;9.75;;;;;26.53;59.54;100738.28;5055531;28;45815;-67
2023/08/24 07:57:58;;;;;;;;;10.00;10.00;;;;;26.58;60.36;100744.16;5054560;28;45911;-67
2023/08/24 08:00:24;;;;;;;;;10.00;10.00;;;;;26.56;59.72;100730.66;5054748;28;45442;-67
2023/08/24 08:02:51;;;;;;;;;8.75;8.00;;;;;26.64;59.32;100726.31;5058028;28;45408;-67
2023/08/24 08:05:17;;;;;;;;;10.75;10.75;;;;;26.66;59.55;100714.16;5058532;28;45454;-67
2023/08/24 08:07:42;;;;;;;;;9.25;9.25;;;;;26.71;59.67;100703.59;5055700;28;45355;-67
2023/08/24 08:10:08;;;;;;;;;10.75;10.75;;;;;26.76;59.01;100709.50;5055302;28;45398;-67
2023/08/24 08:12:35;;;;;;;;;13.75;12.00;;;;;26.79;58.45;100708.31;5056076;28;45326;-67
2023/08/24 08:15:00;;;;;;;;;10.25;10.25;;;;;26.82;59.75;100715.38;5057958;28;45468;-67
2023/08/24 08:17:27;;;;;;;;;10.25;9.25;;;;;26.82;58.21;100710.75;5057709;28;45388;-67
2023/08/24 08:19:59;;;;;;;;;10.25;10.25;;;;;26.94;58.38;100720.44;5048964;28;45448;-67
2023/08/24 08:22:25;;;;;;;;;11.50;10.50;;;;;26.93;58.67;100716.00;5059733;27;45469;-67
2023/08/24 08:24:51;;;;;;;;;14.25;12.75;;;;;27.02;58.12;100716.06;5057482;28;46064;-67
2023/08/24 08:27:16;;;;;;;;;10.75;10.75;;;;;27.02;58.31;100735.25;5058098;28;45314;-67
2023/08/24 08:29:42;;;;;;;;;11.75;10.25;;;;;27.08;59.39;100742.81;5057731;28;45712;-67
2023/08/24 08:32:08;;;;;;;;;11.50;11.50;;;;;27.14;59.29;100750.41;5061028;27;45452;-67
2023/08/24 08:34:33;;;;;;;;;11.75;11.75;;;;;27.18;58.77;100751.81;5055705;28;45470;-67
2023/08/24 08:36:58;;;;;;;;;10.50;10.50;;;;;27.16;58.12;100746.50;5052469;28;59433;-67
2023/08/24 08:39:24;;;;;;;;;11.75;10.50;;;;;27.23;57.60;100752.22;5055417;28;45419;-67
2023/08/24 08:41:49;;;;;;;;;9.50;9.50;;;;;27.29;57.92;100764.44;5051319;28;45445;-67
2023/08/24 08:44:15;;;;;;;;;12.50;9.50;;;;;27.33;57.52;100769.47;5054409;28;46035;-67
2023/08/24 08:46:42;;;;;;;;;8.25;8.25;;;;;27.37;57.25;100763.66;5057307;28;45326;-67
2023/08/24 08:49:10;;;;;;;;;12.00;10.25;;;;;27.42;58.32;100766.78;5056251;28;45551;-67
2023/08/24 08:51:36;;;;;;;;;11.00;11.00;;;;;27.45;57.60;100772.81;5051651;28;45500;-67
2023/08/24 08:54:02;;;;;;;;;10.00;8.75;;;;;27.51;56.90;100772.16;5055052;28;46441;-67
2023/08/24 08:56:29;;;;;;;;;11.25;11.25;;;;;27.58;57.63;100764.16;5056126;28;45884;-67
2023/08/24 08:58:56;;;;;;;;;12.00;10.50;;;;;27.63;56.98;100763.66;5055424;28;45442;-67
2023/08/24 09:01:22;;;;;;;;;12.25;10.75;;;;;27.62;55.87;100757.34;5065682;27;45707;-67
2023/08/24 09:03:48;;;;;;;;;10.50;10.50;;;;;27.65;56.49;100742.44;5055509;28;46088;-67
2023/08/24 09:06:14;;;;;;;;;9.25;9.25;;;;;27.74;55.59;100736.00;5061463;28;45445;-67
2023/08/24 09:08:39;;;;;;;;;12.75;10.50;;;;;27.78;56.57;100723.66;5055824;28;45574;-67
2023/08/24 09:11:08;;;;;;;;;11.25;11.25;;;;;27.81;56.29;100703.28;5053659;28;45374;-66
2023/08/24 09:13:33;;;;;;;;;11.75;11.50;;;;;27.86;55.57;100701.75;5051302;28;45566;-67
2023/08/24 09:16:08;;;;;;;;;11.50;10.25;;;;;27.90;55.66;100711.41;5055322;28;45430;-67
2023/08/24 09:18:38;;;;;;;;;10.75;10.75;;;;;27.94;55.90;100733.06;5055828;28;45699;-67
2023/08/24 09:21:11;;;;;;;;;13.00;11.00;;;;;27.95;56.50;100738.38;5055075;28;45480;-67
2023/08/24 09:23:42;;;;;;;;;13.50;11.75;;;;;27.94;56.08;100739.41;5056464;28;46013;-67
2023/08/24 09:26:08;;;;;;;;;14.75;12.00;;;;;28.01;56.15;100750.56;5054874;28;45780;-67
2023/08/24 09:28:33;;;;;;;;;12.50;12.50;;;;;27.95;56.50;100746.63;5045764;28;46476;-67
2023/08/24 09:31:01;;;;;;;;;15.00;13.75;;;;;27.93;57.18;100759.59;5056822;27;45497;-68
2023/08/24 09:33:26;;;;;;;;;13.00;12.75;;;;;28.01;56.00;100783.50;5055492;28;46171;-67
2023/08/24 09:36:00;;;;;;;;;11.00;11.00;;;;;28.01;56.58;100787.09;5055806;28;45697;-67
2023/08/24 09:38:26;;;;;;;;;12.50;11.00;;;;;27.99;56.63;100791.03;5061479;28;45511;-67
2023/08/24 09:40:53;;;;;;;;;18.50;14.25;;;;;28.01;56.75;100786.25;5050706;27;45587;-67
2023/08/24 09:43:18;;;;;;;;;12.25;12.25;;;;;28.05;56.73;100799.47;5057141;28;45568;-67
2023/08/24 09:45:50;;;;;;;;;14.00;12.75;;;;;28.03;56.54;100798.78;5052731;28;45513;-67
2023/08/24 09:48:16;;;;;;;;;12.00;9.25;;;;;28.05;57.17;100795.84;5056068;28;45629;-67
2023/08/24 09:50:43;;;;;;;;;11.75;11.75;;;;;28.01;56.63;100787.09;5055579;28;45707;-67
2023/08/24 09:53:21;;;;;;;;;12.50;11.50;;;;;28.02;56.06;100785.22;5055523;28;45506;-67
2023/08/24 09:55:55;;;;;;;;;12.25;12.00;;;;;28.04;56.37;100795.00;5056799;28;45560;-67
2023/08/24 09:58:22;;;;;;;;;12.25;11.00;;;;;28.03;56.66;100792.41;5056771;28;45482;-67
2023/08/24 10:00:49;;;;;;;;;15.75;11.75;;;;;27.99;56.52;100789.16;5058554;28;45449;-67
2023/08/24 10:03:24;;;;;;;;;12.25;12.25;;;;;27.97;56.68;100801.31;5047224;28;46385;-67
2023/08/24 10:05:53;;;;;;;;;12.75;12.50;;;;;28.00;56.60;100809.19;5054325;28;45579;-67
2023/08/24 10:08:24;;;;;;;;;10.75;10.75;;;;;28.02;56.42;100818.16;5052320;28;45393;-68
2023/08/24 10:10:54;;;;;;;;;8.50;8.50;;;;;28.03;56.96;100819.84;5059771;28;45353;-67
2023/08/24 10:13:49;;;;;;;;;12.00;10.00;;;;;27.96;56.46;100800.44;5055381;28;46127;-67
2023/08/24 10:16:16;;;;;;;;;14.75;14.75;;;;;27.96;55.65;100797.69;5053247;28;45485;-68
2023/08/24 10:18:42;;;;;;;;;9.00;9.00;;;;;27.93;56.67;100788.94;5060094;28;45359;-67
2023/08/24 10:21:09;;;;;;;;;11.75;10.25;;;;;27.95;56.78;100790.50;5059753;28;45449;-67
2023/08/24 10:23:36;;;;;;;;;11.75;11.25;;;;;27.89;56.64;100771.91;5056423;28;45471;-67
2023/08/24 10:26:03;;;;;;;;;12.00;11.25;;;;;27.96;57.13;100774.91;5057897;28;45516;-67
2023/08/24 10:28:29;;;;;;;;;9.75;9.25;;;;;27.95;56.11;100781.41;5077318;27;45511;-67
2023/08/24 10:30:57;;;;;;;;;11.00;11.00;;;;;27.91;56.78;100786.31;5058468;28;45373;-67
2023/08/24 10:33:24;;;;;;;;;11.50;11.00;;;;;27.94;56.57;100788.78;5058034;28;46238;-68
2023/08/24 10:35:49;;;;;;;;;13.75;11.75;;;;;27.93;56.24;100788.94;5058896;28;45579;-67
2023/08/24 10:38:29;;;;;;;;;12.50;11.50;;;;;27.91;55.95;100791.81;5059309;28;45672;-67
2023/08/24 10:41:03;;;;;;;;;12.75;10.00;;;;;27.86;56.32;100797.75;5057915;28;45473;-67
2023/08/24 10:43:29;;;;;;;;;11.75;11.25;;;;;27.87;57.20;100810.47;5048129;28;46534;-67
2023/08/24 10:45:59;;;;;;;;;9.50;9.50;;;;;27.85;56.53;100826.22;5054365;28;45618;-67
2023/08/24 10:48:29;;;;;;;;;13.25;11.75;;;;;27.88;56.88;100841.50;5060299;28;45453;-67
2023/08/24 10:51:13;;;;;;;;;11.75;11.00;;;;;27.88;57.55;100850.59;5056772;28;45583;-67
2023/08/24 10:53:46;;;;;;;;;9.75;8.25;;;;;27.86;56.92;100854.50;5050957;28;46128;-67
2023/08/24 10:56:13;;;;;;;;;10.25;10.25;;;;;27.84;57.46;100859.31;5055345;28;45613;-67
2023/08/24 10:58:38;;;;;;;;;11.25;11.25;;;;;27.81;56.60;100849.50;5054716;28;45523;-67
2023/08/24 11:01:04;;;;;;;;;11.00;11.00;;;;;27.83;56.23;100857.56;5059640;28;45454;-67
2023/08/24 11:03:33;;;;;;;;;11.50;11.50;;;;;27.82;56.27;100855.88;5057334;28;45452;-65
2023/08/24 11:05:59;;;;;;;;;13.25;12.75;;;;;27.81;56.81;100859.63;5057181;28;45339;-67
2023/08/24 11:08:44;;;;;;;;;12.00;10.00;;;;;27.82;56.15;100855.88;5058287;28;45465;-67
2023/08/24 11:11:20;;;;;;;;;8.75;8.75;;;;;27.81;56.78;100848.66;5060444;28;45489;-67
2023/08/24 11:14:25;;;;;;;;;11.50;11.50;;;;;27.79;56.02;100851.56;5060964;28;45409;-67
2023/08/24 11:16:50;;;;;;;;;11.50;11.50;;;;;27.77;56.91;100859.09;5058615;28;45427;-67